sensor_id;sensor_type;location;lat;lon;timestamp;P1;durP1;ratioP1;P2;durP2;ratioP2
49237;SDS011;35069;47.906;1.892;2022-12-15T00:00:10;44.13;;;24.63;;
49237;SDS011;35069;47.906;1.892;2022-12-15T00:02:55;45.08;;;25.20;;
49237;SDS011;35069;47.906;1.892;2022-12-15T00:05:39;45.97;;;26.13;;
49237;SDS011;35069;47.906;1.892;2022-12-15T00:08:23;45.03;;;25.20;;
49237;SDS011;35069;47.906;1.892;2022-12-15T00:11:07;44.53;;;23.48;;
49237;SDS011;35069;47.906;1.892;2022-12-15T00:13:51;40.63;;;24.48;;
49237;SDS011;35069;47.906;1.892;2022-12-15T00:16:35;43.65;;;23.00;;
49237;SDS011;35069;47.906;1.892;2022-12-15T00:19:19;48.20;;;25.50;;
49237;SDS011;35069;47.906;1.892;2022-12-15T00:22:04;46.47;;;24.67;;
49237;SDS011;35069;47.906;1.892;2022-12-15T00:24:48;45.58;;;24.38;;
49237;SDS011;35069;47.906;1.892;2022-12-15T00:27:33;48.10;;;25.27;;
49237;SDS011;35069;47.906;1.892;2022-12-15T00:30:17;48.53;;;23.77;;
49237;SDS011;35069;47.906;1.892;2022-12-15T00:33:10;44.05;;;24.90;;
49237;SDS011;35069;47.906;1.892;2022-12-15T00:35:56;49.33;;;25.13;;
49237;SDS011;35069;47.906;1.892;2022-12-15T00:38:41;44.28;;;23.55;;
49237;SDS011;35069;47.906;1.892;2022-12-15T00:41:08;43.08;;;24.00;;
49237;SDS011;35069;47.906;1.892;2022-12-15T00:43:38;44.25;;;24.60;;
49237;SDS011;35069;47.906;1.892;2022-12-15T00:46:04;45.33;;;23.35;;
49237;SDS011;35069;47.906;1.892;2022-12-15T00:48:48;45.25;;;24.92;;
49237;SDS011;35069;47.906;1.892;2022-12-15T00:51:14;49.00;;;25.83;;
49237;SDS011;35069;47.906;1.892;2022-12-15T00:53:41;42.95;;;24.38;;
49237;SDS011;35069;47.906;1.892;2022-12-15T00:56:26;44.85;;;23.92;;
49237;SDS011;35069;47.906;1.892;2022-12-15T00:59:10;42.03;;;23.45;;
49237;SDS011;35069;47.906;1.892;2022-12-15T01:01:55;48.15;;;24.02;;
49237;SDS011;35069;47.906;1.892;2022-12-15T01:04:39;44.25;;;23.77;;
49237;SDS011;35069;47.906;1.892;2022-12-15T01:07:23;47.45;;;25.00;;
49237;SDS011;35069;47.906;1.892;2022-12-15T01:10:07;47.20;;;23.42;;
49237;SDS011;35069;47.906;1.892;2022-12-15T01:12:52;44.55;;;24.73;;
49237;SDS011;35069;47.906;1.892;2022-12-15T01:15:36;48.03;;;24.10;;
49237;SDS011;35069;47.906;1.892;2022-12-15T01:18:21;50.20;;;25.88;;
49237;SDS011;35069;47.906;1.892;2022-12-15T01:21:06;46.30;;;24.83;;
49237;SDS011;35069;47.906;1.892;2022-12-15T01:23:33;40.90;;;23.60;;
49237;SDS011;35069;47.906;1.892;2022-12-15T01:25:59;40.97;;;24.10;;
49237;SDS011;35069;47.906;1.892;2022-12-15T01:28:26;43.50;;;24.17;;
49237;SDS011;35069;47.906;1.892;2022-12-15T01:30:52;42.50;;;24.90;;
49237;SDS011;35069;47.906;1.892;2022-12-15T01:33:20;47.75;;;26.30;;
49237;SDS011;35069;47.906;1.892;2022-12-15T01:35:55;40.97;;;23.13;;
49237;SDS011;35069;47.906;1.892;2022-12-15T01:38:22;50.55;;;24.52;;
49237;SDS011;35069;47.906;1.892;2022-12-15T01:40:55;45.97;;;24.20;;
49237;SDS011;35069;47.906;1.892;2022-12-15T01:43:25;46.20;;;24.20;;
49237;SDS011;35069;47.906;1.892;2022-12-15T01:48:26;44.83;;;23.88;;
49237;SDS011;35069;47.906;1.892;2022-12-15T01:50:55;51.22;;;25.30;;
49237;SDS011;35069;47.906;1.892;2022-12-15T01:53:23;42.67;;;23.98;;
49237;SDS011;35069;47.906;1.892;2022-12-15T01:55:49;43.53;;;23.83;;
49237;SDS011;35069;47.906;1.892;2022-12-15T01:58:15;49.38;;;24.13;;
49237;SDS011;35069;47.906;1.892;2022-12-15T02:00:42;45.35;;;24.42;;
49237;SDS011;35069;47.906;1.892;2022-12-15T02:03:08;45.40;;;23.13;;
49237;SDS011;35069;47.906;1.892;2022-12-15T02:05:38;40.78;;;23.98;;
49237;SDS011;35069;47.906;1.892;2022-12-15T02:08:05;44.63;;;23.38;;
49237;SDS011;35069;47.906;1.892;2022-12-15T02:10:46;48.08;;;23.35;;
49237;SDS011;35069;47.906;1.892;2022-12-15T02:13:29;40.80;;;23.42;;
49237;SDS011;35069;47.906;1.892;2022-12-15T02:16:16;42.47;;;24.17;;
49237;SDS011;35069;47.906;1.892;2022-12-15T02:18:58;43.22;;;23.50;;
49237;SDS011;35069;47.906;1.892;2022-12-15T02:21:34;42.95;;;23.92;;
49237;SDS011;35069;47.906;1.892;2022-12-15T02:28:01;50.55;;;26.05;;
49237;SDS011;35069;47.906;1.892;2022-12-15T02:30:16;44.50;;;25.67;;
49237;SDS011;35069;47.906;1.892;2022-12-15T02:35:42;41.60;;;22.10;;
49237;SDS011;35069;47.906;1.892;2022-12-15T02:38:13;46.03;;;24.42;;
49237;SDS011;35069;47.906;1.892;2022-12-15T02:40:39;45.08;;;25.83;;
49237;SDS011;35069;47.906;1.892;2022-12-15T02:43:05;49.03;;;25.10;;
49237;SDS011;35069;47.906;1.892;2022-12-15T02:45:35;54.15;;;23.73;;
49237;SDS011;35069;47.906;1.892;2022-12-15T02:48:17;44.60;;;24.63;;
49237;SDS011;35069;47.906;1.892;2022-12-15T02:51:07;46.72;;;23.73;;
49237;SDS011;35069;47.906;1.892;2022-12-15T02:56:40;43.60;;;24.70;;
49237;SDS011;35069;47.906;1.892;2022-12-15T02:59:23;46.67;;;24.85;;
49237;SDS011;35069;47.906;1.892;2022-12-15T03:01:59;44.00;;;24.40;;
49237;SDS011;35069;47.906;1.892;2022-12-15T03:04:30;45.25;;;23.30;;
49237;SDS011;35069;47.906;1.892;2022-12-15T03:06:58;45.70;;;24.50;;
49237;SDS011;35069;47.906;1.892;2022-12-15T03:09:28;37.97;;;23.48;;
49237;SDS011;35069;47.906;1.892;2022-12-15T03:11:54;46.05;;;23.20;;
49237;SDS011;35069;47.906;1.892;2022-12-15T03:14:20;47.78;;;25.85;;
49237;SDS011;35069;47.906;1.892;2022-12-15T03:16:46;53.63;;;26.67;;
49237;SDS011;35069;47.906;1.892;2022-12-15T03:19:12;42.13;;;23.30;;
49237;SDS011;35069;47.906;1.892;2022-12-15T03:21:38;43.08;;;23.45;;
49237;SDS011;35069;47.906;1.892;2022-12-15T03:24:03;43.25;;;23.58;;
49237;SDS011;35069;47.906;1.892;2022-12-15T03:26:29;48.10;;;25.38;;
49237;SDS011;35069;47.906;1.892;2022-12-15T03:28:55;44.47;;;25.33;;
49237;SDS011;35069;47.906;1.892;2022-12-15T03:31:20;44.47;;;22.90;;
49237;SDS011;35069;47.906;1.892;2022-12-15T03:33:46;44.35;;;22.80;;
49237;SDS011;35069;47.906;1.892;2022-12-15T03:36:14;42.47;;;22.17;;
49237;SDS011;35069;47.906;1.892;2022-12-15T03:38:39;45.95;;;23.05;;
49237;SDS011;35069;47.906;1.892;2022-12-15T03:41:05;46.53;;;23.50;;
49237;SDS011;35069;47.906;1.892;2022-12-15T03:43:31;40.85;;;22.65;;
49237;SDS011;35069;47.906;1.892;2022-12-15T03:45:59;44.38;;;24.52;;
49237;SDS011;35069;47.906;1.892;2022-12-15T03:48:25;43.95;;;22.55;;
49237;SDS011;35069;47.906;1.892;2022-12-15T03:50:51;47.17;;;24.98;;
49237;SDS011;35069;47.906;1.892;2022-12-15T03:53:16;37.03;;;21.35;;
49237;SDS011;35069;47.906;1.892;2022-12-15T03:55:42;44.50;;;23.45;;
49237;SDS011;35069;47.906;1.892;2022-12-15T03:58:08;42.92;;;22.08;;
49237;SDS011;35069;47.906;1.892;2022-12-15T04:00:34;48.13;;;24.73;;
49237;SDS011;35069;47.906;1.892;2022-12-15T04:02:59;45.42;;;23.65;;
49237;SDS011;35069;47.906;1.892;2022-12-15T04:05:26;42.67;;;23.58;;
49237;SDS011;35069;47.906;1.892;2022-12-15T04:07:54;43.25;;;23.42;;
49237;SDS011;35069;47.906;1.892;2022-12-15T04:10:22;43.28;;;22.67;;
49237;SDS011;35069;47.906;1.892;2022-12-15T04:12:55;45.92;;;23.55;;
49237;SDS011;35069;47.906;1.892;2022-12-15T04:15:24;44.63;;;22.25;;
49237;SDS011;35069;47.906;1.892;2022-12-15T04:17:54;43.42;;;23.88;;
49237;SDS011;35069;47.906;1.892;2022-12-15T04:20:22;38.95;;;21.92;;
49237;SDS011;35069;47.906;1.892;2022-12-15T04:22:48;42.40;;;23.17;;
49237;SDS011;35069;47.906;1.892;2022-12-15T04:25:16;45.38;;;23.23;;
49237;SDS011;35069;47.906;1.892;2022-12-15T04:28:03;43.20;;;24.20;;
49237;SDS011;35069;47.906;1.892;2022-12-15T04:30:51;47.92;;;24.75;;
49237;SDS011;35069;47.906;1.892;2022-12-15T04:33:38;43.20;;;22.17;;
49237;SDS011;35069;47.906;1.892;2022-12-15T04:36:25;41.08;;;23.65;;
49237;SDS011;35069;47.906;1.892;2022-12-15T04:39:10;46.63;;;24.05;;
49237;SDS011;35069;47.906;1.892;2022-12-15T04:41:55;42.95;;;23.08;;
49237;SDS011;35069;47.906;1.892;2022-12-15T04:44:42;43.00;;;23.13;;
49237;SDS011;35069;47.906;1.892;2022-12-15T04:47:26;42.97;;;22.75;;
49237;SDS011;35069;47.906;1.892;2022-12-15T04:50:12;41.85;;;23.27;;
49237;SDS011;35069;47.906;1.892;2022-12-15T04:53:15;41.38;;;22.98;;
49237;SDS011;35069;47.906;1.892;2022-12-15T04:56:00;43.13;;;23.10;;
49237;SDS011;35069;47.906;1.892;2022-12-15T04:58:45;40.60;;;20.85;;
49237;SDS011;35069;47.906;1.892;2022-12-15T05:01:30;41.83;;;22.92;;
49237;SDS011;35069;47.906;1.892;2022-12-15T05:04:15;50.08;;;22.90;;
49237;SDS011;35069;47.906;1.892;2022-12-15T05:06:59;43.42;;;22.92;;
49237;SDS011;35069;47.906;1.892;2022-12-15T05:09:43;44.55;;;23.63;;
49237;SDS011;35069;47.906;1.892;2022-12-15T05:12:27;34.90;;;21.60;;
49237;SDS011;35069;47.906;1.892;2022-12-15T05:15:11;38.92;;;21.98;;
49237;SDS011;35069;47.906;1.892;2022-12-15T05:17:56;39.40;;;21.23;;
49237;SDS011;35069;47.906;1.892;2022-12-15T05:20:40;39.97;;;23.58;;
49237;SDS011;35069;47.906;1.892;2022-12-15T05:23:24;40.60;;;22.52;;
49237;SDS011;35069;47.906;1.892;2022-12-15T05:26:09;36.80;;;21.38;;
49237;SDS011;35069;47.906;1.892;2022-12-15T05:28:53;39.00;;;22.08;;
49237;SDS011;35069;47.906;1.892;2022-12-15T05:31:37;48.55;;;22.15;;
49237;SDS011;35069;47.906;1.892;2022-12-15T05:36:50;42.80;;;24.50;;
49237;SDS011;35069;47.906;1.892;2022-12-15T05:39:28;42.03;;;23.23;;
49237;SDS011;35069;47.906;1.892;2022-12-15T05:41:56;40.88;;;22.50;;
49237;SDS011;35069;47.906;1.892;2022-12-15T05:44:22;45.58;;;22.98;;
49237;SDS011;35069;47.906;1.892;2022-12-15T05:46:49;38.17;;;20.60;;
49237;SDS011;35069;47.906;1.892;2022-12-15T05:49:15;48.65;;;23.35;;
49237;SDS011;35069;47.906;1.892;2022-12-15T05:51:42;43.70;;;23.67;;
49237;SDS011;35069;47.906;1.892;2022-12-15T05:54:10;39.58;;;21.67;;
49237;SDS011;35069;47.906;1.892;2022-12-15T05:56:37;41.75;;;22.42;;
49237;SDS011;35069;47.906;1.892;2022-12-15T05:59:06;41.75;;;21.83;;
49237;SDS011;35069;47.906;1.892;2022-12-15T06:01:34;44.97;;;23.50;;
49237;SDS011;35069;47.906;1.892;2022-12-15T06:04:15;43.15;;;22.35;;
49237;SDS011;35069;47.906;1.892;2022-12-15T06:07:03;42.92;;;22.55;;
49237;SDS011;35069;47.906;1.892;2022-12-15T06:09:29;37.75;;;21.35;;
49237;SDS011;35069;47.906;1.892;2022-12-15T06:12:01;42.55;;;22.92;;
49237;SDS011;35069;47.906;1.892;2022-12-15T06:14:29;39.33;;;21.85;;
49237;SDS011;35069;47.906;1.892;2022-12-15T06:16:55;43.13;;;22.70;;
49237;SDS011;35069;47.906;1.892;2022-12-15T06:19:21;37.50;;;22.75;;
49237;SDS011;35069;47.906;1.892;2022-12-15T06:21:46;45.67;;;21.67;;
49237;SDS011;35069;47.906;1.892;2022-12-15T06:24:12;46.35;;;23.85;;
49237;SDS011;35069;47.906;1.892;2022-12-15T06:26:53;41.58;;;23.30;;
49237;SDS011;35069;47.906;1.892;2022-12-15T06:29:40;45.03;;;23.85;;
49237;SDS011;35069;47.906;1.892;2022-12-15T06:32:39;51.38;;;24.10;;
49237;SDS011;35069;47.906;1.892;2022-12-15T06:38:09;41.95;;;22.58;;
49237;SDS011;35069;47.906;1.892;2022-12-15T06:40:36;41.30;;;24.48;;
49237;SDS011;35069;47.906;1.892;2022-12-15T06:43:02;45.88;;;22.05;;
49237;SDS011;35069;47.906;1.892;2022-12-15T06:45:28;45.70;;;23.25;;
49237;SDS011;35069;47.906;1.892;2022-12-15T06:47:54;41.40;;;23.33;;
49237;SDS011;35069;47.906;1.892;2022-12-15T06:50:31;42.25;;;23.58;;
49237;SDS011;35069;47.906;1.892;2022-12-15T06:53:07;42.53;;;22.50;;
49237;SDS011;35069;47.906;1.892;2022-12-15T06:55:37;45.53;;;22.60;;
49237;SDS011;35069;47.906;1.892;2022-12-15T06:58:03;39.78;;;23.70;;
49237;SDS011;35069;47.906;1.892;2022-12-15T07:00:29;40.58;;;23.15;;
49237;SDS011;35069;47.906;1.892;2022-12-15T07:03:00;43.83;;;24.40;;
49237;SDS011;35069;47.906;1.892;2022-12-15T07:05:27;48.08;;;24.27;;
49237;SDS011;35069;47.906;1.892;2022-12-15T07:07:52;46.53;;;23.05;;
49237;SDS011;35069;47.906;1.892;2022-12-15T07:10:18;39.58;;;22.85;;
49237;SDS011;35069;47.906;1.892;2022-12-15T07:12:44;43.40;;;24.13;;
49237;SDS011;35069;47.906;1.892;2022-12-15T07:15:10;40.88;;;23.13;;
49237;SDS011;35069;47.906;1.892;2022-12-15T07:17:35;38.58;;;23.75;;
49237;SDS011;35069;47.906;1.892;2022-12-15T07:20:02;43.95;;;23.77;;
49237;SDS011;35069;47.906;1.892;2022-12-15T07:22:29;46.20;;;22.30;;
49237;SDS011;35069;47.906;1.892;2022-12-15T07:24:54;40.03;;;23.83;;
49237;SDS011;35069;47.906;1.892;2022-12-15T07:27:20;43.42;;;23.10;;
49237;SDS011;35069;47.906;1.892;2022-12-15T07:29:46;48.03;;;24.83;;
49237;SDS011;35069;47.906;1.892;2022-12-15T07:32:12;46.72;;;24.50;;
49237;SDS011;35069;47.906;1.892;2022-12-15T07:34:37;48.10;;;24.80;;
49237;SDS011;35069;47.906;1.892;2022-12-15T07:37:03;43.85;;;23.23;;
49237;SDS011;35069;47.906;1.892;2022-12-15T07:39:29;39.90;;;23.92;;
49237;SDS011;35069;47.906;1.892;2022-12-15T07:41:55;47.70;;;25.25;;
49237;SDS011;35069;47.906;1.892;2022-12-15T07:44:20;44.83;;;23.65;;
49237;SDS011;35069;47.906;1.892;2022-12-15T07:46:46;48.33;;;26.38;;
49237;SDS011;35069;47.906;1.892;2022-12-15T07:49:13;43.03;;;23.42;;
49237;SDS011;35069;47.906;1.892;2022-12-15T07:51:40;43.80;;;23.35;;
49237;SDS011;35069;47.906;1.892;2022-12-15T07:54:07;50.28;;;24.88;;
49237;SDS011;35069;47.906;1.892;2022-12-15T07:56:35;46.65;;;23.23;;
49237;SDS011;35069;47.906;1.892;2022-12-15T07:59:01;39.95;;;22.60;;
49237;SDS011;35069;47.906;1.892;2022-12-15T08:01:28;41.78;;;23.40;;
49237;SDS011;35069;47.906;1.892;2022-12-15T08:03:53;42.70;;;22.52;;
49237;SDS011;35069;47.906;1.892;2022-12-15T08:06:19;43.70;;;23.88;;
49237;SDS011;35069;47.906;1.892;2022-12-15T08:08:45;43.53;;;22.65;;
49237;SDS011;35069;47.906;1.892;2022-12-15T08:11:11;39.95;;;23.92;;
49237;SDS011;35069;47.906;1.892;2022-12-15T08:13:39;41.22;;;24.73;;
49237;SDS011;35069;47.906;1.892;2022-12-15T08:16:07;41.15;;;23.38;;
49237;SDS011;35069;47.906;1.892;2022-12-15T08:18:34;42.08;;;22.58;;
49237;SDS011;35069;47.906;1.892;2022-12-15T08:21:06;49.72;;;25.38;;
49237;SDS011;35069;47.906;1.892;2022-12-15T08:23:39;41.95;;;22.92;;
49237;SDS011;35069;47.906;1.892;2022-12-15T08:26:06;43.03;;;23.92;;
49237;SDS011;35069;47.906;1.892;2022-12-15T08:28:34;41.90;;;22.15;;
49237;SDS011;35069;47.906;1.892;2022-12-15T08:31:04;38.47;;;22.40;;
49237;SDS011;35069;47.906;1.892;2022-12-15T08:33:32;49.38;;;23.23;;
49237;SDS011;35069;47.906;1.892;2022-12-15T08:35:59;40.47;;;21.80;;
49237;SDS011;35069;47.906;1.892;2022-12-15T08:38:27;36.40;;;21.85;;
49237;SDS011;35069;47.906;1.892;2022-12-15T08:40:53;39.70;;;22.13;;
49237;SDS011;35069;47.906;1.892;2022-12-15T08:43:19;47.65;;;24.15;;
49237;SDS011;35069;47.906;1.892;2022-12-15T08:45:45;40.35;;;22.10;;
49237;SDS011;35069;47.906;1.892;2022-12-15T08:48:10;36.55;;;21.27;;
49237;SDS011;35069;47.906;1.892;2022-12-15T08:50:36;41.10;;;22.02;;
49237;SDS011;35069;47.906;1.892;2022-12-15T08:53:02;36.92;;;21.65;;
49237;SDS011;35069;47.906;1.892;2022-12-15T08:55:27;43.67;;;22.90;;
49237;SDS011;35069;47.906;1.892;2022-12-15T08:57:53;38.75;;;22.77;;
49237;SDS011;35069;47.906;1.892;2022-12-15T09:00:20;38.15;;;22.13;;
49237;SDS011;35069;47.906;1.892;2022-12-15T09:02:45;40.97;;;22.15;;
49237;SDS011;35069;47.906;1.892;2022-12-15T09:05:11;42.65;;;22.92;;
49237;SDS011;35069;47.906;1.892;2022-12-15T09:07:36;37.13;;;20.98;;
49237;SDS011;35069;47.906;1.892;2022-12-15T09:10:02;34.63;;;20.95;;
49237;SDS011;35069;47.906;1.892;2022-12-15T09:12:28;43.28;;;21.90;;
49237;SDS011;35069;47.906;1.892;2022-12-15T09:14:53;38.10;;;21.58;;
49237;SDS011;35069;47.906;1.892;2022-12-15T09:17:19;41.85;;;23.02;;
49237;SDS011;35069;47.906;1.892;2022-12-15T09:19:45;40.80;;;22.67;;
49237;SDS011;35069;47.906;1.892;2022-12-15T09:22:10;40.03;;;22.17;;
49237;SDS011;35069;47.906;1.892;2022-12-15T09:24:36;40.35;;;21.70;;
49237;SDS011;35069;47.906;1.892;2022-12-15T09:27:02;43.05;;;21.85;;
49237;SDS011;35069;47.906;1.892;2022-12-15T09:29:28;35.95;;;21.05;;
49237;SDS011;35069;47.906;1.892;2022-12-15T09:31:53;36.63;;;21.40;;
49237;SDS011;35069;47.906;1.892;2022-12-15T09:34:19;36.20;;;21.00;;
49237;SDS011;35069;47.906;1.892;2022-12-15T09:36:45;37.25;;;22.00;;
49237;SDS011;35069;47.906;1.892;2022-12-15T09:39:10;34.53;;;20.85;;
49237;SDS011;35069;47.906;1.892;2022-12-15T09:41:37;35.90;;;19.23;;
49237;SDS011;35069;47.906;1.892;2022-12-15T09:46:46;35.05;;;19.58;;
49237;SDS011;35069;47.906;1.892;2022-12-15T09:52:43;35.60;;;18.02;;
49237;SDS011;35069;47.906;1.892;2022-12-15T09:55:19;33.92;;;19.17;;
49237;SDS011;35069;47.906;1.892;2022-12-15T09:57:57;29.20;;;16.98;;
49237;SDS011;35069;47.906;1.892;2022-12-15T10:00:24;31.02;;;19.45;;
49237;SDS011;35069;47.906;1.892;2022-12-15T10:08:15;34.17;;;18.63;;
49237;SDS011;35069;47.906;1.892;2022-12-15T10:10:42;31.83;;;20.75;;
49237;SDS011;35069;47.906;1.892;2022-12-15T10:13:19;31.20;;;17.88;;
49237;SDS011;35069;47.906;1.892;2022-12-15T10:15:52;30.90;;;18.40;;
49237;SDS011;35069;47.906;1.892;2022-12-15T10:18:36;35.90;;;18.65;;
49237;SDS011;35069;47.906;1.892;2022-12-15T10:21:25;33.08;;;18.85;;
49237;SDS011;35069;47.906;1.892;2022-12-15T10:23:53;30.50;;;17.80;;
49237;SDS011;35069;47.906;1.892;2022-12-15T10:26:25;31.73;;;17.70;;
49237;SDS011;35069;47.906;1.892;2022-12-15T10:31:57;35.50;;;18.10;;
49237;SDS011;35069;47.906;1.892;2022-12-15T10:34:40;26.80;;;16.98;;
49237;SDS011;35069;47.906;1.892;2022-12-15T10:37:08;30.42;;;18.75;;
49237;SDS011;35069;47.906;1.892;2022-12-15T10:39:43;29.98;;;16.58;;
49237;SDS011;35069;47.906;1.892;2022-12-15T10:42:12;32.20;;;18.77;;
49237;SDS011;35069;47.906;1.892;2022-12-15T10:44:42;33.78;;;18.52;;
49237;SDS011;35069;47.906;1.892;2022-12-15T10:47:17;36.17;;;16.27;;
49237;SDS011;35069;47.906;1.892;2022-12-15T10:49:51;30.45;;;17.52;;
49237;SDS011;35069;47.906;1.892;2022-12-15T10:52:20;29.90;;;18.17;;
49237;SDS011;35069;47.906;1.892;2022-12-15T10:54:54;31.75;;;17.25;;
49237;SDS011;35069;47.906;1.892;2022-12-15T10:57:24;25.52;;;15.77;;
49237;SDS011;35069;47.906;1.892;2022-12-15T10:59:52;31.77;;;18.00;;
49237;SDS011;35069;47.906;1.892;2022-12-15T11:07:33;28.25;;;17.75;;
49237;SDS011;35069;47.906;1.892;2022-12-15T11:10:12;28.42;;;16.15;;
49237;SDS011;35069;47.906;1.892;2022-12-15T11:12:42;38.92;;;18.73;;
49237;SDS011;35069;47.906;1.892;2022-12-15T11:17:47;32.92;;;19.70;;
49237;SDS011;35069;47.906;1.892;2022-12-15T11:20:37;31.30;;;19.95;;
49237;SDS011;35069;47.906;1.892;2022-12-15T11:23:12;29.27;;;17.83;;
49237;SDS011;35069;47.906;1.892;2022-12-15T11:25:50;35.10;;;20.05;;
49237;SDS011;35069;47.906;1.892;2022-12-15T11:28:33;34.90;;;18.35;;
49237;SDS011;35069;47.906;1.892;2022-12-15T11:31:10;34.35;;;19.33;;
49237;SDS011;35069;47.906;1.892;2022-12-15T11:33:51;28.40;;;16.83;;
49237;SDS011;35069;47.906;1.892;2022-12-15T11:39:17;31.88;;;17.23;;
49237;SDS011;35069;47.906;1.892;2022-12-15T11:47:42;27.45;;;16.05;;
49237;SDS011;35069;47.906;1.892;2022-12-15T12:04:15;25.98;;;16.05;;
49237;SDS011;35069;47.906;1.892;2022-12-15T12:09:40;26.48;;;16.08;;
49237;SDS011;35069;47.906;1.892;2022-12-15T12:17:42;24.95;;;15.77;;
49237;SDS011;35069;47.906;1.892;2022-12-15T12:20:15;27.42;;;16.30;;
49237;SDS011;35069;47.906;1.892;2022-12-15T12:22:50;28.40;;;16.25;;
49237;SDS011;35069;47.906;1.892;2022-12-15T12:25:35;24.63;;;14.68;;
49237;SDS011;35069;47.906;1.892;2022-12-15T12:28:34;23.50;;;14.77;;
49237;SDS011;35069;47.906;1.892;2022-12-15T12:31:20;26.15;;;14.52;;
49237;SDS011;35069;47.906;1.892;2022-12-15T12:34:05;24.58;;;14.90;;
49237;SDS011;35069;47.906;1.892;2022-12-15T12:36:38;26.13;;;14.88;;
49237;SDS011;35069;47.906;1.892;2022-12-15T12:39:08;21.08;;;13.07;;
49237;SDS011;35069;47.906;1.892;2022-12-15T12:41:43;23.23;;;15.30;;
49237;SDS011;35069;47.906;1.892;2022-12-15T12:44:32;26.17;;;15.25;;
49237;SDS011;35069;47.906;1.892;2022-12-15T12:47:12;28.88;;;15.93;;
49237;SDS011;35069;47.906;1.892;2022-12-15T12:49:48;28.35;;;16.13;;
49237;SDS011;35069;47.906;1.892;2022-12-15T12:52:21;24.25;;;15.43;;
49237;SDS011;35069;47.906;1.892;2022-12-15T12:54:59;28.10;;;17.48;;
49237;SDS011;35069;47.906;1.892;2022-12-15T12:57:45;27.30;;;16.20;;
49237;SDS011;35069;47.906;1.892;2022-12-15T13:00:13;25.67;;;15.27;;
49237;SDS011;35069;47.906;1.892;2022-12-15T13:02:55;23.05;;;15.13;;
49237;SDS011;35069;47.906;1.892;2022-12-15T13:05:48;28.90;;;15.18;;
49237;SDS011;35069;47.906;1.892;2022-12-15T13:08:15;26.45;;;15.88;;
49237;SDS011;35069;47.906;1.892;2022-12-15T13:10:52;22.80;;;15.02;;
49237;SDS011;35069;47.906;1.892;2022-12-15T13:16:16;29.67;;;17.05;;
49237;SDS011;35069;47.906;1.892;2022-12-15T13:19:06;31.33;;;17.33;;
49237;SDS011;35069;47.906;1.892;2022-12-15T13:29:36;25.17;;;15.25;;
49237;SDS011;35069;47.906;1.892;2022-12-15T13:32:53;30.35;;;17.27;;
49237;SDS011;35069;47.906;1.892;2022-12-15T13:35:37;28.17;;;16.50;;
49237;SDS011;35069;47.906;1.892;2022-12-15T13:38:17;34.08;;;18.80;;
49237;SDS011;35069;47.906;1.892;2022-12-15T13:43:09;31.88;;;19.00;;
49237;SDS011;35069;47.906;1.892;2022-12-15T13:46:14;28.70;;;16.15;;
49237;SDS011;35069;47.906;1.892;2022-12-15T13:48:45;28.02;;;16.23;;
49237;SDS011;35069;47.906;1.892;2022-12-15T13:53:54;26.00;;;15.60;;
49237;SDS011;35069;47.906;1.892;2022-12-15T14:02:34;27.75;;;15.93;;
49237;SDS011;35069;47.906;1.892;2022-12-15T14:05:13;28.85;;;15.88;;
49237;SDS011;35069;47.906;1.892;2022-12-15T14:07:46;27.85;;;15.65;;
49237;SDS011;35069;47.906;1.892;2022-12-15T14:10:20;26.70;;;16.30;;
49237;SDS011;35069;47.906;1.892;2022-12-15T14:13:07;27.95;;;17.30;;
49237;SDS011;35069;47.906;1.892;2022-12-15T14:15:43;26.33;;;15.27;;
49237;SDS011;35069;47.906;1.892;2022-12-15T14:18:26;25.95;;;15.13;;
49237;SDS011;35069;47.906;1.892;2022-12-15T14:21:01;25.70;;;16.15;;
49237;SDS011;35069;47.906;1.892;2022-12-15T14:23:40;28.70;;;17.48;;
49237;SDS011;35069;47.906;1.892;2022-12-15T14:26:15;26.05;;;14.38;;
49237;SDS011;35069;47.906;1.892;2022-12-15T14:28:42;35.67;;;16.45;;
49237;SDS011;35069;47.906;1.892;2022-12-15T14:31:19;27.58;;;16.33;;
49237;SDS011;35069;47.906;1.892;2022-12-15T14:33:47;23.85;;;15.38;;
49237;SDS011;35069;47.906;1.892;2022-12-15T14:36:18;22.42;;;14.68;;
49237;SDS011;35069;47.906;1.892;2022-12-15T14:38:55;23.10;;;13.70;;
49237;SDS011;35069;47.906;1.892;2022-12-15T14:41:25;22.40;;;14.75;;
49237;SDS011;35069;47.906;1.892;2022-12-15T14:44:04;20.73;;;12.88;;
49237;SDS011;35069;47.906;1.892;2022-12-15T14:46:55;21.92;;;13.73;;
49237;SDS011;35069;47.906;1.892;2022-12-15T14:49:40;23.90;;;12.30;;
49237;SDS011;35069;47.906;1.892;2022-12-15T14:57:44;21.38;;;12.25;;
49237;SDS011;35069;47.906;1.892;2022-12-15T15:00:35;22.55;;;13.88;;
49237;SDS011;35069;47.906;1.892;2022-12-15T15:03:38;21.00;;;11.77;;
49237;SDS011;35069;47.906;1.892;2022-12-15T15:06:28;23.35;;;13.13;;
49237;SDS011;35069;47.906;1.892;2022-12-15T15:09:03;22.05;;;12.57;;
49237;SDS011;35069;47.906;1.892;2022-12-15T15:11:43;20.38;;;12.65;;
49237;SDS011;35069;47.906;1.892;2022-12-15T15:17:52;18.80;;;11.77;;
49237;SDS011;35069;47.906;1.892;2022-12-15T15:20:23;22.38;;;11.85;;
49237;SDS011;35069;47.906;1.892;2022-12-15T15:28:43;18.48;;;11.75;;
49237;SDS011;35069;47.906;1.892;2022-12-15T15:34:12;20.20;;;12.65;;
49237;SDS011;35069;47.906;1.892;2022-12-15T15:36:38;20.98;;;13.50;;
49237;SDS011;35069;47.906;1.892;2022-12-15T15:39:16;20.55;;;12.27;;
49237;SDS011;35069;47.906;1.892;2022-12-15T15:41:47;22.58;;;12.77;;
49237;SDS011;35069;47.906;1.892;2022-12-15T15:44:13;17.17;;;10.93;;
49237;SDS011;35069;47.906;1.892;2022-12-15T15:46:49;18.17;;;10.93;;
49237;SDS011;35069;47.906;1.892;2022-12-15T15:49:31;20.20;;;12.63;;
49237;SDS011;35069;47.906;1.892;2022-12-15T15:52:10;25.77;;;13.50;;
49237;SDS011;35069;47.906;1.892;2022-12-15T15:54:41;24.75;;;13.15;;
49237;SDS011;35069;47.906;1.892;2022-12-15T15:57:10;24.83;;;15.75;;
49237;SDS011;35069;47.906;1.892;2022-12-15T15:59:49;29.00;;;15.75;;
49237;SDS011;35069;47.906;1.892;2022-12-15T16:02:17;28.45;;;16.58;;
49237;SDS011;35069;47.906;1.892;2022-12-15T16:04:46;29.13;;;16.83;;
49237;SDS011;35069;47.906;1.892;2022-12-15T16:07:15;27.50;;;16.42;;
49237;SDS011;35069;47.906;1.892;2022-12-15T16:09:49;32.78;;;19.00;;
49237;SDS011;35069;47.906;1.892;2022-12-15T16:12:23;34.58;;;17.85;;
49237;SDS011;35069;47.906;1.892;2022-12-15T16:14:56;37.03;;;19.65;;
49237;SDS011;35069;47.906;1.892;2022-12-15T16:20:59;36.35;;;20.13;;
49237;SDS011;35069;47.906;1.892;2022-12-15T16:23:53;31.63;;;19.15;;
49237;SDS011;35069;47.906;1.892;2022-12-15T16:27:04;40.03;;;19.23;;
49237;SDS011;35069;47.906;1.892;2022-12-15T16:29:54;33.53;;;18.38;;
49237;SDS011;35069;47.906;1.892;2022-12-15T16:36:31;33.90;;;18.25;;
49237;SDS011;35069;47.906;1.892;2022-12-15T16:39:09;36.38;;;19.60;;
49237;SDS011;35069;47.906;1.892;2022-12-15T16:49:25;35.28;;;18.58;;
49237;SDS011;35069;47.906;1.892;2022-12-15T16:58:56;33.13;;;18.73;;
49237;SDS011;35069;47.906;1.892;2022-12-15T17:01:22;32.75;;;17.65;;
49237;SDS011;35069;47.906;1.892;2022-12-15T17:03:57;35.28;;;17.65;;
49237;SDS011;35069;47.906;1.892;2022-12-15T17:06:23;36.55;;;20.15;;
49237;SDS011;35069;47.906;1.892;2022-12-15T17:08:50;34.70;;;18.92;;
49237;SDS011;35069;47.906;1.892;2022-12-15T17:11:20;30.33;;;16.65;;